sensor_id;sensor_type;location;lat;lon;timestamp;pressure;altitude;pressure_sealevel;temperature;humidity
47080;BME280;33067;49.296;14.470;2024-03-29T00:00:53;95839.93;;;9.10;38.37
47080;BME280;33067;49.296;14.470;2024-03-29T00:05:34;95842.71;;;9.33;37.81
47080;BME280;33067;49.296;14.470;2024-03-29T00:07:57;95838.78;;;9.48;38.01
47080;BME280;33067;49.296;14.470;2024-03-29T00:10:23;95841.65;;;8.96;38.27
47080;BME280;33067;49.296;14.470;2024-03-29T00:17:39;95852.98;;;9.08;38.35
47080;BME280;33067;49.296;14.470;2024-03-29T00:20:05;95859.17;;;8.21;39.33
47080;BME280;33067;49.296;14.470;2024-03-29T00:22:40;95855.75;;;9.20;38.75
47080;BME280;33067;49.296;14.470;2024-03-29T00:24:55;95858.89;;;8.99;38.62
47080;BME280;33067;49.296;14.470;2024-03-29T00:27:21;95860.34;;;9.18;38.48
47080;BME280;33067;49.296;14.470;2024-03-29T00:29:46;95857.01;;;9.29;38.21
47080;BME280;33067;49.296;14.470;2024-03-29T00:32:11;95856.44;;;9.23;38.21
47080;BME280;33067;49.296;14.470;2024-03-29T00:34:36;95856.08;;;8.92;38.32
47080;BME280;33067;49.296;14.470;2024-03-29T00:37:02;95852.98;;;9.03;38.20
47080;BME280;33067;49.296;14.470;2024-03-29T00:39:27;95849.34;;;8.86;38.26
47080;BME280;33067;49.296;14.470;2024-03-29T00:41:53;95847.12;;;8.94;37.83
47080;BME280;33067;49.296;14.470;2024-03-29T00:44:28;95850.08;;;8.78;38.37
47080;BME280;33067;49.296;14.470;2024-03-29T00:46:43;95856.26;;;8.90;38.03
47080;BME280;33067;49.296;14.470;2024-03-29T00:49:09;95857.78;;;9.02;38.00
47080;BME280;33067;49.296;14.470;2024-03-29T00:51:35;95858.73;;;9.22;38.03
47080;BME280;33067;49.296;14.470;2024-03-29T00:54:01;95864.32;;;9.19;37.72
47080;BME280;33067;49.296;14.470;2024-03-29T00:56:25;95866.38;;;8.97;37.98
47080;BME280;33067;49.296;14.470;2024-03-29T00:58:52;95860.11;;;8.88;37.97
47080;BME280;33067;49.296;14.470;2024-03-29T01:01:16;95853.65;;;8.89;38.57
47080;BME280;33067;49.296;14.470;2024-03-29T01:06:07;95852.73;;;8.57;38.99
47080;BME280;33067;49.296;14.470;2024-03-29T01:08:32;95854.11;;;9.21;38.89
47080;BME280;33067;49.296;14.470;2024-03-29T01:13:24;95864.50;;;9.14;38.23
47080;BME280;33067;49.296;14.470;2024-03-29T01:15:49;95869.79;;;9.06;38.12
47080;BME280;33067;49.296;14.470;2024-03-29T01:18:14;95876.97;;;9.38;37.96
47080;BME280;33067;49.296;14.470;2024-03-29T01:25:30;95883.49;;;9.04;37.80
47080;BME280;33067;49.296;14.470;2024-03-29T01:27:56;95878.14;;;9.27;37.43
47080;BME280;33067;49.296;14.470;2024-03-29T01:32:47;95876.58;;;9.13;38.58
47080;BME280;33067;49.296;14.470;2024-03-29T01:35:12;95870.21;;;8.69;38.78
47080;BME280;33067;49.296;14.470;2024-03-29T01:37:37;95868.35;;;8.39;39.00
47080;BME280;33067;49.296;14.470;2024-03-29T01:40:03;95867.55;;;8.80;38.96
47080;BME280;33067;49.296;14.470;2024-03-29T01:42:28;95867.99;;;8.83;39.09
47080;BME280;33067;49.296;14.470;2024-03-29T01:44:54;95873.04;;;8.54;39.26
47080;BME280;33067;49.296;14.470;2024-03-29T01:52:09;95883.12;;;8.59;38.92
47080;BME280;33067;49.296;14.470;2024-03-29T01:54:35;95880.34;;;8.59;39.43
47080;BME280;33067;49.296;14.470;2024-03-29T02:13:58;95830.36;;;7.66;40.40
47080;BME280;33067;49.296;14.470;2024-03-29T02:16:24;95834.12;;;7.82;39.76
47080;BME280;33067;49.296;14.470;2024-03-29T02:18:49;95843.12;;;8.03;39.55
47080;BME280;33067;49.296;14.470;2024-03-29T02:21:16;95856.78;;;8.20;39.69
47080;BME280;33067;49.296;14.470;2024-03-29T02:23:43;95855.80;;;8.21;39.23
47080;BME280;33067;49.296;14.470;2024-03-29T02:30:57;95873.82;;;8.28;39.25
47080;BME280;33067;49.296;14.470;2024-03-29T02:33:32;95874.82;;;7.85;39.01
47080;BME280;33067;49.296;14.470;2024-03-29T02:38:13;95881.17;;;8.50;38.72
47080;BME280;33067;49.296;14.470;2024-03-29T02:45:36;95877.36;;;8.52;39.25
47080;BME280;33067;49.296;14.470;2024-03-29T02:47:55;95870.31;;;8.00;39.69
47080;BME280;33067;49.296;14.470;2024-03-29T02:50:24;95871.72;;;8.04;40.07
47080;BME280;33067;49.296;14.470;2024-03-29T02:52:45;95883.19;;;7.79;40.19
47080;BME280;33067;49.296;14.470;2024-03-29T02:55:11;95884.54;;;8.05;39.60
47080;BME280;33067;49.296;14.470;2024-03-29T03:02:27;95881.02;;;8.13;39.00
47080;BME280;33067;49.296;14.470;2024-03-29T03:04:53;95881.49;;;8.38;39.02
47080;BME280;33067;49.296;14.470;2024-03-29T03:07:19;95873.78;;;8.20;39.01
47080;BME280;33067;49.296;14.470;2024-03-29T03:09:44;95874.17;;;8.13;39.04
47080;BME280;33067;49.296;14.470;2024-03-29T03:13:01;95887.82;;;8.65;38.86
47080;BME280;33067;49.296;14.470;2024-03-29T03:15:26;95894.47;;;7.98;39.84
47080;BME280;33067;49.296;14.470;2024-03-29T03:17:51;95890.76;;;8.35;39.93
47080;BME280;33067;49.296;14.470;2024-03-29T03:20:16;95888.63;;;8.11;40.20
47080;BME280;33067;49.296;14.470;2024-03-29T03:22:42;95890.97;;;7.69;40.65
47080;BME280;33067;49.296;14.470;2024-03-29T03:25:08;95890.22;;;7.47;40.60
47080;BME280;33067;49.296;14.470;2024-03-29T03:27:33;95891.89;;;7.19;40.50
47080;BME280;33067;49.296;14.470;2024-03-29T03:29:59;95885.89;;;7.56;39.96
47080;BME280;33067;49.296;14.470;2024-03-29T03:32:25;95888.89;;;7.67;39.92
47080;BME280;33067;49.296;14.470;2024-03-29T03:34:49;95894.42;;;7.65;39.41
47080;BME280;33067;49.296;14.470;2024-03-29T03:37:15;95901.24;;;7.83;39.25
47080;BME280;33067;49.296;14.470;2024-03-29T03:39:40;95905.08;;;7.93;39.05
47080;BME280;33067;49.296;14.470;2024-03-29T03:42:06;95912.33;;;7.99;39.07
47080;BME280;33067;49.296;14.470;2024-03-29T03:44:31;95913.24;;;8.01;38.97
47080;BME280;33067;49.296;14.470;2024-03-29T03:46:57;95913.66;;;8.07;38.68
47080;BME280;33067;49.296;14.470;2024-03-29T03:54:13;95899.86;;;8.30;38.42
47080;BME280;33067;49.296;14.470;2024-03-29T03:56:38;95889.92;;;8.15;38.43
47080;BME280;33067;49.296;14.470;2024-03-29T03:59:06;95885.90;;;8.23;38.29
47080;BME280;33067;49.296;14.470;2024-03-29T04:03:55;95885.39;;;8.45;38.59
47080;BME280;33067;49.296;14.470;2024-03-29T04:06:20;95880.71;;;8.07;38.63
47080;BME280;33067;49.296;14.470;2024-03-29T04:08:47;95881.95;;;8.12;38.63
47080;BME280;33067;49.296;14.470;2024-03-29T04:11:11;95886.89;;;8.01;38.73
47080;BME280;33067;49.296;14.470;2024-03-29T04:16:02;95858.37;;;8.29;38.26
47080;BME280;33067;49.296;14.470;2024-03-29T04:18:27;95858.94;;;8.21;38.15
47080;BME280;33067;49.296;14.470;2024-03-29T04:20:56;95865.74;;;8.18;37.97
47080;BME280;33067;49.296;14.470;2024-03-29T04:23:18;95863.42;;;8.17;38.18
47080;BME280;33067;49.296;14.470;2024-03-29T04:25:51;95861.57;;;8.21;38.22
47080;BME280;33067;49.296;14.470;2024-03-29T04:28:09;95865.18;;;7.96;38.53
47080;BME280;33067;49.296;14.470;2024-03-29T04:30:35;95858.26;;;8.08;38.17
47080;BME280;33067;49.296;14.470;2024-03-29T04:33:00;95853.49;;;8.06;38.20
47080;BME280;33067;49.296;14.470;2024-03-29T04:35:25;95847.85;;;8.04;38.14
47080;BME280;33067;49.296;14.470;2024-03-29T04:37:51;95846.29;;;8.14;37.73
47080;BME280;33067;49.296;14.470;2024-03-29T04:40:26;95840.26;;;8.19;37.89
47080;BME280;33067;49.296;14.470;2024-03-29T04:42:42;95835.50;;;7.81;38.61
47080;BME280;33067;49.296;14.470;2024-03-29T04:45:08;95839.16;;;7.62;38.85
47080;BME280;33067;49.296;14.470;2024-03-29T04:49:58;95850.43;;;7.94;38.78
47080;BME280;33067;49.296;14.470;2024-03-29T04:52:24;95855.03;;;8.10;38.61
47080;BME280;33067;49.296;14.470;2024-03-29T04:54:49;95860.92;;;7.91;38.59
47080;BME280;33067;49.296;14.470;2024-03-29T04:57:17;95860.38;;;8.15;38.41
47080;BME280;33067;49.296;14.470;2024-03-29T04:59:40;95861.84;;;8.13;38.24
47080;BME280;33067;49.296;14.470;2024-03-29T05:02:05;95862.05;;;8.41;37.61
47080;BME280;33067;49.296;14.470;2024-03-29T05:04:31;95865.23;;;8.60;37.51
47080;BME280;33067;49.296;14.470;2024-03-29T05:06:58;95860.63;;;8.05;37.52
47080;BME280;33067;49.296;14.470;2024-03-29T05:09:21;95861.90;;;8.35;37.23
47080;BME280;33067;49.296;14.470;2024-03-29T05:11:46;95861.03;;;8.31;37.31
47080;BME280;33067;49.296;14.470;2024-03-29T05:14:12;95862.57;;;8.19;37.67
47080;BME280;33067;49.296;14.470;2024-03-29T05:16:37;95864.05;;;8.19;38.06
47080;BME280;33067;49.296;14.470;2024-03-29T05:19:03;95867.50;;;8.32;38.05
47080;BME280;33067;49.296;14.470;2024-03-29T05:21:28;95874.91;;;8.43;37.93
47080;BME280;33067;49.296;14.470;2024-03-29T05:23:59;95878.27;;;8.13;38.22
47080;BME280;33067;49.296;14.470;2024-03-29T05:26:20;95876.11;;;8.00;38.55
47080;BME280;33067;49.296;14.470;2024-03-29T05:28:49;95876.24;;;8.18;38.78
47080;BME280;33067;49.296;14.470;2024-03-29T05:31:13;95873.41;;;8.37;37.97
47080;BME280;33067;49.296;14.470;2024-03-29T05:33:35;95869.73;;;8.47;38.12
47080;BME280;33067;49.296;14.470;2024-03-29T05:36:01;95866.40;;;8.40;38.10
47080;BME280;33067;49.296;14.470;2024-03-29T05:38:26;95869.36;;;8.01;38.56
47080;BME280;33067;49.296;14.470;2024-03-29T05:40:52;95867.96;;;7.94;38.88
47080;BME280;33067;49.296;14.470;2024-03-29T05:43:17;95867.72;;;7.99;39.07
47080;BME280;33067;49.296;14.470;2024-03-29T05:45:42;95869.07;;;8.14;39.21
47080;BME280;33067;49.296;14.470;2024-03-29T05:48:08;95867.17;;;8.69;38.45
47080;BME280;33067;49.296;14.470;2024-03-29T05:50:33;95867.15;;;9.04;38.30
47080;BME280;33067;49.296;14.470;2024-03-29T05:52:59;95870.54;;;8.77;37.45
47080;BME280;33067;49.296;14.470;2024-03-29T05:55:24;95882.11;;;9.40;37.92
47080;BME280;33067;49.296;14.470;2024-03-29T05:57:52;95885.66;;;9.36;37.50
47080;BME280;33067;49.296;14.470;2024-03-29T06:00:16;95883.19;;;9.73;37.07
47080;BME280;33067;49.296;14.470;2024-03-29T06:02:41;95881.56;;;10.15;36.45
47080;BME280;33067;49.296;14.470;2024-03-29T06:07:30;95881.84;;;10.51;35.80
47080;BME280;33067;49.296;14.470;2024-03-29T06:09:56;95876.50;;;10.11;35.69
47080;BME280;33067;49.296;14.470;2024-03-29T06:12:24;95879.94;;;10.60;35.29
47080;BME280;33067;49.296;14.470;2024-03-29T06:14:47;95880.26;;;10.30;34.91
47080;BME280;33067;49.296;14.470;2024-03-29T06:17:12;95880.74;;;10.03;35.18
47080;BME280;33067;49.296;14.470;2024-03-29T06:19:38;95890.61;;;10.57;35.00
47080;BME280;33067;49.296;14.470;2024-03-29T06:22:03;95897.60;;;10.30;35.64
47080;BME280;33067;49.296;14.470;2024-03-29T06:24:28;95891.94;;;10.12;34.87
47080;BME280;33067;49.296;14.470;2024-03-29T06:26:55;95889.05;;;10.77;35.34
47080;BME280;33067;49.296;14.470;2024-03-29T06:29:18;95884.26;;;10.30;35.58
47080;BME280;33067;49.296;14.470;2024-03-29T06:31:44;95869.73;;;10.82;34.46
47080;BME280;33067;49.296;14.470;2024-03-29T06:34:09;95862.71;;;10.41;35.89
47080;BME280;33067;49.296;14.470;2024-03-29T06:36:35;95867.53;;;10.89;34.25
47080;BME280;33067;49.296;14.470;2024-03-29T06:39:00;95870.91;;;10.49;35.74
47080;BME280;33067;49.296;14.470;2024-03-29T06:41:26;95871.35;;;9.45;35.64
47080;BME280;33067;49.296;14.470;2024-03-29T06:43:50;95861.64;;;11.08;34.43
47080;BME280;33067;49.296;14.470;2024-03-29T06:46:16;95861.46;;;11.33;33.83
47080;BME280;33067;49.296;14.470;2024-03-29T06:48:52;95861.07;;;11.92;32.73
47080;BME280;33067;49.296;14.470;2024-03-29T06:51:09;95862.54;;;11.08;34.02
47080;BME280;33067;49.296;14.470;2024-03-29T06:53:32;95862.16;;;11.08;34.57
47080;BME280;33067;49.296;14.470;2024-03-29T06:56:00;95865.35;;;10.66;34.44
47080;BME280;33067;49.296;14.470;2024-03-29T06:58:23;95869.35;;;10.31;35.83
47080;BME280;33067;49.296;14.470;2024-03-29T07:00:48;95872.12;;;10.57;35.15
47080;BME280;33067;49.296;14.470;2024-03-29T07:03:14;95855.98;;;9.86;36.70
47080;BME280;33067;49.296;14.470;2024-03-29T07:05:39;95850.61;;;9.08;38.03
47080;BME280;33067;49.296;14.470;2024-03-29T07:08:05;95850.08;;;9.94;37.16
47080;BME280;33067;49.296;14.470;2024-03-29T07:10:29;95844.83;;;10.84;35.14
47080;BME280;33067;49.296;14.470;2024-03-29T07:12:55;95846.28;;;10.46;35.61
47080;BME280;33067;49.296;14.470;2024-03-29T07:15:20;95856.28;;;10.91;35.02
47080;BME280;33067;49.296;14.470;2024-03-29T07:17:45;95861.35;;;11.23;34.84
47080;BME280;33067;49.296;14.470;2024-03-29T07:20:11;95855.16;;;10.91;34.98
47080;BME280;33067;49.296;14.470;2024-03-29T07:22:36;95848.13;;;11.20;34.79
47080;BME280;33067;49.296;14.470;2024-03-29T07:25:01;95841.20;;;11.13;35.17
47080;BME280;33067;49.296;14.470;2024-03-29T07:27:27;95835.41;;;11.10;35.13
47080;BME280;33067;49.296;14.470;2024-03-29T07:29:54;95834.55;;;12.04;33.62
47080;BME280;33067;49.296;14.470;2024-03-29T07:32:17;95823.55;;;11.72;34.55
47080;BME280;33067;49.296;14.470;2024-03-29T07:34:42;95826.16;;;11.97;34.11
47080;BME280;33067;49.296;14.470;2024-03-29T07:37:08;95817.61;;;11.68;35.06
47080;BME280;33067;49.296;14.470;2024-03-29T07:39:34;95819.03;;;12.15;34.24
47080;BME280;33067;49.296;14.470;2024-03-29T07:41:58;95816.46;;;12.97;32.61
47080;BME280;33067;49.296;14.470;2024-03-29T07:44:24;95809.20;;;12.67;32.64
47080;BME280;33067;49.296;14.470;2024-03-29T07:46:49;95804.23;;;12.08;32.94
47080;BME280;33067;49.296;14.470;2024-03-29T07:49:14;95807.06;;;12.37;32.54
47080;BME280;33067;49.296;14.470;2024-03-29T07:51:41;95814.62;;;12.83;32.59
47080;BME280;33067;49.296;14.470;2024-03-29T07:54:05;95818.35;;;12.75;31.58
47080;BME280;33067;49.296;14.470;2024-03-29T07:56:30;95815.22;;;12.77;32.31
47080;BME280;33067;49.296;14.470;2024-03-29T07:58:55;95815.55;;;12.86;32.91
47080;BME280;33067;49.296;14.470;2024-03-29T08:01:21;95817.76;;;12.94;32.66
47080;BME280;33067;49.296;14.470;2024-03-29T08:03:46;95829.62;;;13.68;30.57
47080;BME280;33067;49.296;14.470;2024-03-29T08:06:11;95819.31;;;12.46;32.85
47080;BME280;33067;49.296;14.470;2024-03-29T08:08:36;95814.20;;;13.06;32.03
47080;BME280;33067;49.296;14.470;2024-03-29T08:11:01;95807.58;;;13.11;31.13
47080;BME280;33067;49.296;14.470;2024-03-29T08:13:27;95798.71;;;12.92;31.42
47080;BME280;33067;49.296;14.470;2024-03-29T08:15:57;95792.72;;;12.57;31.63
47080;BME280;33067;49.296;14.470;2024-03-29T08:18:17;95788.43;;;12.71;31.53
47080;BME280;33067;49.296;14.470;2024-03-29T08:20:42;95792.60;;;13.63;30.52
47080;BME280;33067;49.296;14.470;2024-03-29T08:23:07;95797.37;;;13.85;31.03
47080;BME280;33067;49.296;14.470;2024-03-29T08:25:33;95798.47;;;13.52;30.27
47080;BME280;33067;49.296;14.470;2024-03-29T08:27:58;95792.40;;;13.59;28.90
47080;BME280;33067;49.296;14.470;2024-03-29T08:30:23;95790.27;;;14.09;29.14
47080;BME280;33067;49.296;14.470;2024-03-29T08:32:49;95770.21;;;13.85;28.92
47080;BME280;33067;49.296;14.470;2024-03-29T08:35:14;95775.21;;;13.58;28.35
47080;BME280;33067;49.296;14.470;2024-03-29T08:37:39;95765.35;;;13.39;29.06
47080;BME280;33067;49.296;14.470;2024-03-29T08:40:05;95759.70;;;13.38;29.51
47080;BME280;33067;49.296;14.470;2024-03-29T08:42:30;95758.09;;;13.95;28.68
47080;BME280;33067;49.296;14.470;2024-03-29T08:44:54;95747.22;;;13.73;28.23
47080;BME280;33067;49.296;14.470;2024-03-29T08:47:20;95730.92;;;14.08;27.76
47080;BME280;33067;49.296;14.470;2024-03-29T08:49:45;95739.14;;;13.25;28.76
47080;BME280;33067;49.296;14.470;2024-03-29T08:52:10;95760.28;;;13.91;27.75
47080;BME280;33067;49.296;14.470;2024-03-29T08:54:36;95746.13;;;13.76;27.78
47080;BME280;33067;49.296;14.470;2024-03-29T08:57:01;95737.76;;;13.74;27.60
47080;BME280;33067;49.296;14.470;2024-03-29T08:59:27;95737.41;;;14.30;27.28
47080;BME280;33067;49.296;14.470;2024-03-29T09:01:52;95744.20;;;14.60;27.10
47080;BME280;33067;49.296;14.470;2024-03-29T09:04:17;95742.07;;;15.48;26.30
47080;BME280;33067;49.296;14.470;2024-03-29T09:06:42;95752.64;;;14.90;26.16
47080;BME280;33067;49.296;14.470;2024-03-29T09:09:07;95754.83;;;14.88;24.46
47080;BME280;33067;49.296;14.470;2024-03-29T09:11:32;95751.21;;;14.43;26.02
47080;BME280;33067;49.296;14.470;2024-03-29T09:13:57;95735.45;;;15.10;26.56
47080;BME280;33067;49.296;14.470;2024-03-29T09:16:23;95723.04;;;13.53;26.43
47080;BME280;33067;49.296;14.470;2024-03-29T09:18:48;95707.03;;;13.93;26.82
47080;BME280;33067;49.296;14.470;2024-03-29T09:21:13;95691.13;;;14.20;26.96
47080;BME280;33067;49.296;14.470;2024-03-29T09:23:39;95687.71;;;14.71;26.72
47080;BME280;33067;49.296;14.470;2024-03-29T09:26:04;95703.84;;;14.79;26.61
47080;BME280;33067;49.296;14.470;2024-03-29T09:28:29;95704.48;;;14.05;26.77
47080;BME280;33067;49.296;14.470;2024-03-29T09:33:19;95691.42;;;15.28;26.87
47080;BME280;33067;49.296;14.470;2024-03-29T09:35:44;95698.02;;;15.09;26.83
47080;BME280;33067;49.296;14.470;2024-03-29T09:38:09;95689.48;;;15.81;25.68
47080;BME280;33067;49.296;14.470;2024-03-29T09:40:34;95681.01;;;15.57;26.35
47080;BME280;33067;49.296;14.470;2024-03-29T09:43:01;95688.78;;;15.03;26.65
47080;BME280;33067;49.296;14.470;2024-03-29T09:45:25;95688.84;;;14.84;26.56
47080;BME280;33067;49.296;14.470;2024-03-29T09:47:51;95686.03;;;15.08;26.71
47080;BME280;33067;49.296;14.470;2024-03-29T09:50:15;95683.85;;;15.05;26.16
47080;BME280;33067;49.296;14.470;2024-03-29T09:52:41;95696.01;;;15.41;26.12
47080;BME280;33067;49.296;14.470;2024-03-29T09:55:06;95678.39;;;15.02;26.75
47080;BME280;33067;49.296;14.470;2024-03-29T09:57:31;95696.88;;;15.25;26.76
47080;BME280;33067;49.296;14.470;2024-03-29T09:59:57;95693.10;;;14.96;26.45
47080;BME280;33067;49.296;14.470;2024-03-29T10:02:22;95683.18;;;15.53;26.48
47080;BME280;33067;49.296;14.470;2024-03-29T10:04:47;95681.00;;;15.20;26.18
47080;BME280;33067;49.296;14.470;2024-03-29T10:07:12;95682.14;;;16.43;26.25
47080;BME280;33067;49.296;14.470;2024-03-29T10:09:37;95691.55;;;16.41;26.52
47080;BME280;33067;49.296;14.470;2024-03-29T10:12:03;95676.17;;;16.22;26.40
47080;BME280;33067;49.296;14.470;2024-03-29T10:14:30;95683.66;;;15.68;26.28
47080;BME280;33067;49.296;14.470;2024-03-29T10:16:52;95676.57;;;15.78;27.05
47080;BME280;33067;49.296;14.470;2024-03-29T10:19:18;95676.68;;;16.17;26.23
47080;BME280;33067;49.296;14.470;2024-03-29T10:21:43;95688.49;;;16.64;26.12
47080;BME280;33067;49.296;14.470;2024-03-29T10:24:13;95674.36;;;16.57;27.27
47080;BME280;33067;49.296;14.470;2024-03-29T10:26:33;95672.85;;;16.41;26.50
47080;BME280;33067;49.296;14.470;2024-03-29T10:28:58;95651.77;;;16.35;27.41
47080;BME280;33067;49.296;14.470;2024-03-29T10:31:23;95652.17;;;16.36;27.66
47080;BME280;33067;49.296;14.470;2024-03-29T10:33:48;95644.17;;;16.79;26.16
47080;BME280;33067;49.296;14.470;2024-03-29T10:36:15;95646.53;;;15.92;26.40
47080;BME280;33067;49.296;14.470;2024-03-29T10:38:39;95649.18;;;16.90;26.01
47080;BME280;33067;49.296;14.470;2024-03-29T10:41:05;95624.74;;;16.18;26.41
47080;BME280;33067;49.296;14.470;2024-03-29T10:43:28;95617.27;;;17.33;26.43
47080;BME280;33067;49.296;14.470;2024-03-29T10:45:56;95630.82;;;16.12;26.85
47080;BME280;33067;49.296;14.470;2024-03-29T10:48:21;95627.87;;;16.39;26.49
47080;BME280;33067;49.296;14.470;2024-03-29T10:50:44;95628.69;;;16.17;26.99
47080;BME280;33067;49.296;14.470;2024-03-29T10:53:09;95632.14;;;17.06;26.10
47080;BME280;33067;49.296;14.470;2024-03-29T10:55:35;95630.00;;;17.24;26.14
47080;BME280;33067;49.296;14.470;2024-03-29T10:58:00;95636.00;;;17.01;26.22
47080;BME280;33067;49.296;14.470;2024-03-29T11:00:25;95637.86;;;16.89;25.85
47080;BME280;33067;49.296;14.470;2024-03-29T11:02:50;95632.16;;;17.05;26.20
47080;BME280;33067;49.296;14.470;2024-03-29T11:05:16;95632.05;;;17.54;25.77
47080;BME280;33067;49.296;14.470;2024-03-29T11:07:40;95632.36;;;17.28;26.14
47080;BME280;33067;49.296;14.470;2024-03-29T11:10:05;95628.00;;;17.11;26.27
47080;BME280;33067;49.296;14.470;2024-03-29T11:12:41;95628.84;;;16.94;26.59
47080;BME280;33067;49.296;14.470;2024-03-29T11:15:00;95630.71;;;16.96;26.46
47080;BME280;33067;49.296;14.470;2024-03-29T11:17:20;95625.15;;;17.26;26.20
47080;BME280;33067;49.296;14.470;2024-03-29T11:19:45;95618.38;;;17.43;26.71
47080;BME280;33067;49.296;14.470;2024-03-29T11:22:10;95617.20;;;17.40;26.31
47080;BME280;33067;49.296;14.470;2024-03-29T11:24:35;95617.22;;;17.81;25.89
47080;BME280;33067;49.296;14.470;2024-03-29T11:27:07;95631.15;;;17.48;26.47
47080;BME280;33067;49.296;14.470;2024-03-29T11:29:25;95621.77;;;17.52;27.06
47080;BME280;33067;49.296;14.470;2024-03-29T11:31:58;95624.96;;;18.04;26.24
47080;BME280;33067;49.296;14.470;2024-03-29T11:34:19;95625.09;;;17.35;26.28
47080;BME280;33067;49.296;14.470;2024-03-29T11:36:40;95629.35;;;18.19;25.99
47080;BME280;33067;49.296;14.470;2024-03-29T11:39:05;95621.62;;;18.63;25.59
47080;BME280;33067;49.296;14.470;2024-03-29T11:41:30;95616.92;;;18.06;25.99
47080;BME280;33067;49.296;14.470;2024-03-29T11:43:56;95620.64;;;18.18;25.86
47080;BME280;33067;49.296;14.470;2024-03-29T11:46:21;95606.38;;;18.03;26.45
47080;BME280;33067;49.296;14.470;2024-03-29T11:48:46;95605.91;;;16.23;26.52
47080;BME280;33067;49.296;14.470;2024-03-29T11:51:12;95600.81;;;17.68;26.19
47080;BME280;33067;49.296;14.470;2024-03-29T11:53:36;95600.50;;;18.89;25.34
47080;BME280;33067;49.296;14.470;2024-03-29T11:56:02;95599.16;;;18.74;26.51
47080;BME280;33067;49.296;14.470;2024-03-29T11:58:27;95585.85;;;18.67;25.94
47080;BME280;33067;49.296;14.470;2024-03-29T12:00:51;95581.59;;;19.08;25.31
47080;BME280;33067;49.296;14.470;2024-03-29T12:03:17;95600.88;;;18.58;25.45
47080;BME280;33067;49.296;14.470;2024-03-29T12:05:41;95590.56;;;18.44;26.42
47080;BME280;33067;49.296;14.470;2024-03-29T12:08:06;95580.71;;;18.10;26.73
47080;BME280;33067;49.296;14.470;2024-03-29T12:10:31;95580.29;;;17.62;26.95
47080;BME280;33067;49.296;14.470;2024-03-29T12:12:56;95587.11;;;18.15;26.97
47080;BME280;33067;49.296;14.470;2024-03-29T12:15:23;95585.39;;;17.56;27.39
47080;BME280;33067;49.296;14.470;2024-03-29T12:17:54;95589.52;;;17.68;27.96
47080;BME280;33067;49.296;14.470;2024-03-29T12:20:14;95585.81;;;18.22;26.83
47080;BME280;33067;49.296;14.470;2024-03-29T12:22:36;95588.47;;;18.24;26.90
47080;BME280;33067;49.296;14.470;2024-03-29T12:25:01;95584.46;;;18.14;26.25
47080;BME280;33067;49.296;14.470;2024-03-29T12:27:27;95580.04;;;18.29;25.96
47080;BME280;33067;49.296;14.470;2024-03-29T12:29:51;95582.60;;;18.51;25.86
47080;BME280;33067;49.296;14.470;2024-03-29T12:32:19;95582.95;;;18.48;25.90
47080;BME280;33067;49.296;14.470;2024-03-29T12:34:41;95575.47;;;18.26;26.42
47080;BME280;33067;49.296;14.470;2024-03-29T12:37:08;95576.74;;;18.11;26.48
47080;BME280;33067;49.296;14.470;2024-03-29T12:39:32;95589.11;;;18.98;25.49
47080;BME280;33067;49.296;14.470;2024-03-29T12:41:56;95579.37;;;18.70;26.16
47080;BME280;33067;49.296;14.470;2024-03-29T12:44:22;95592.03;;;18.33;26.88
47080;BME280;33067;49.296;14.470;2024-03-29T12:46:47;95596.62;;;18.13;26.91
47080;BME280;33067;49.296;14.470;2024-03-29T12:49:11;95616.11;;;17.96;26.90
47080;BME280;33067;49.296;14.470;2024-03-29T12:51:39;95592.59;;;17.54;27.75
47080;BME280;33067;49.296;14.470;2024-03-29T12:54:02;95588.49;;;18.26;26.41
47080;BME280;33067;49.296;14.470;2024-03-29T12:56:27;95588.14;;;18.72;26.01
47080;BME280;33067;49.296;14.470;2024-03-29T12:58:52;95582.78;;;18.57;26.59
47080;BME280;33067;49.296;14.470;2024-03-29T13:01:17;95589.56;;;18.93;26.34
47080;BME280;33067;49.296;14.470;2024-03-29T13:03:42;95584.25;;;18.19;26.52
47080;BME280;33067;49.296;14.470;2024-03-29T13:06:07;95582.44;;;18.96;26.39
47080;BME280;33067;49.296;14.470;2024-03-29T13:08:32;95591.94;;;18.40;26.78
47080;BME280;33067;49.296;14.470;2024-03-29T13:11:02;95590.23;;;18.21;26.83
47080;BME280;33067;49.296;14.470;2024-03-29T13:13:22;95588.98;;;17.86;26.89
47080;BME280;33067;49.296;14.470;2024-03-29T13:15:47;95588.48;;;18.21;26.83
47080;BME280;33067;49.296;14.470;2024-03-29T13:18:12;95583.71;;;17.95;27.12
47080;BME280;33067;49.296;14.470;2024-03-29T13:20:37;95580.05;;;17.89;26.81
47080;BME280;33067;49.296;14.470;2024-03-29T13:23:02;95587.50;;;18.55;26.62
47080;BME280;33067;49.296;14.470;2024-03-29T13:25:27;95597.58;;;18.13;26.66
47080;BME280;33067;49.296;14.470;2024-03-29T13:27:54;95591.11;;;18.46;27.16
47080;BME280;33067;49.296;14.470;2024-03-29T13:30:17;95580.81;;;18.23;27.15
47080;BME280;33067;49.296;14.470;2024-03-29T13:32:42;95584.12;;;18.56;26.94
47080;BME280;33067;49.296;14.470;2024-03-29T13:35:08;95586.52;;;18.61;26.75
47080;BME280;33067;49.296;14.470;2024-03-29T13:37:33;95579.15;;;18.57;26.94
47080;BME280;33067;49.296;14.470;2024-03-29T13:39:58;95589.66;;;18.53;27.09
47080;BME280;33067;49.296;14.470;2024-03-29T13:42:23;95575.37;;;18.37;27.02
47080;BME280;33067;49.296;14.470;2024-03-29T13:44:50;95587.37;;;18.59;26.79
47080;BME280;33067;49.296;14.470;2024-03-29T13:47:13;95565.27;;;18.47;27.19
47080;BME280;33067;49.296;14.470;2024-03-29T13:49:38;95566.77;;;18.74;27.06
47080;BME280;33067;49.296;14.470;2024-03-29T13:52:03;95567.13;;;18.46;27.10
47080;BME280;33067;49.296;14.470;2024-03-29T13:54:28;95567.77;;;18.45;27.36
47080;BME280;33067;49.296;14.470;2024-03-29T13:56:53;95564.51;;;17.98;27.69
47080;BME280;33067;49.296;14.470;2024-03-29T13:59:18;95569.12;;;19.21;26.70